Escondido, California
Current Conditions -  °F | °C
As of 8:53 AM on Wednesday 26 Nov 2014 (Local Time) from KRNM Reporting Station
Clear Clear  
Wind Chill: 70°   Ceiling: Unl
Heat Index: 70°   Visibility: 10mi
Dew Point: 33°   Wind: 0mph
Humidity: 26%   Direction: NA
Pressure: 30.25"   Gusts: NA
Location:  33.12°N, 117.08°W
Report Text: KRNM 261653Z 00000KT 10SM CLR 21/01 A3025 RMK AO2 SLP238 T02110006
Loading
Personal Weather Stations






























Interactive Weather Map New forecast layout! Learn more

10-Day Weather Forecast

Advertisements
Track Severe Weather on mobile